Time;durP1;ratioP1;P1;durP2;ratioP2;P2;SDS_P1;SDS_P2;PMS_P1;PMS_P2;Temp;Humidity;BMP_temperature;BMP_pressure;BME280_temperature;BME280_humidity;BME280_pressure;Samples;Min_cycle;Max_cycle;Signal;HPM_P1;HPM_P2
2023/09/25 00:01:43;;;;;;;3.90;1.48;;;18.00;58.00;;;;;;6217833;28;20033;-74
2023/09/25 00:04:44;;;;;;;3.38;1.00;;;18.00;58.10;;;;;;6234094;28;20125;-76
2023/09/25 00:07:44;;;;;;;4.28;1.50;;;17.90;58.20;;;;;;6236361;28;20109;-75
2023/09/25 00:10:45;;;;;;;2.65;1.00;;;17.90;58.10;;;;;;6230927;28;20120;-74
2023/09/25 00:13:46;;;;;;;2.05;1.23;;;17.90;58.10;;;;;;6212905;28;20029;-75
2023/09/25 00:16:47;;;;;;;1.55;0.98;;;17.80;58.10;;;;;;6211616;28;20490;-75
2023/09/25 00:19:47;;;;;;;1.98;1.10;;;17.80;58.10;;;;;;6212606;28;20045;-74
2023/09/25 00:22:48;;;;;;;2.15;1.10;;;17.80;58.20;;;;;;6198178;28;20042;-75
2023/09/25 00:26:03;;;;;;;2.55;1.33;;;17.80;58.30;;;;;;6198786;28;20033;-75
2023/09/25 00:29:04;;;;;;;4.15;1.13;;;17.70;58.40;;;;;;6198011;28;20046;-75
2023/09/25 00:32:05;;;;;;;2.92;1.35;;;17.70;58.50;;;;;;6216009;28;20034;-76
2023/09/25 00:35:08;;;;;;;2.22;1.05;;;17.70;58.60;;;;;;6240544;28;20044;-74
2023/09/25 00:38:10;;;;;;;3.25;1.45;;;17.60;58.80;;;;;;6222517;28;20573;-75
2023/09/25 00:41:11;;;;;;;3.30;1.27;;;17.50;58.80;;;;;;6222046;28;20080;-76
2023/09/25 00:44:12;;;;;;;1.67;1.15;;;17.50;59.00;;;;;;6238452;28;20034;-76
2023/09/25 00:47:13;;;;;;;3.25;1.25;;;17.50;59.20;;;;;;6219881;28;20505;-73
2023/09/25 00:50:14;;;;;;;3.05;1.13;;;17.40;59.40;;;;;;6215326;28;20041;-74
2023/09/25 00:53:17;;;;;;;1.02;0.93;;;17.30;59.50;;;;;;6215992;28;20038;-77
2023/09/25 00:56:18;;;;;;;5.20;1.30;;;17.30;59.60;;;;;;6215855;28;20112;-76
2023/09/25 00:59:20;;;;;;;2.13;1.25;;;17.30;59.80;;;;;;6254539;28;20038;-76
2023/09/25 01:02:22;;;;;;;2.25;1.35;;;17.20;60.00;;;;;;6238569;28;20038;-74
2023/09/25 01:05:23;;;;;;;3.85;1.48;;;17.30;60.20;;;;;;6222103;28;20075;-75
2023/09/25 01:08:24;;;;;;;3.35;0.90;;;17.20;60.10;;;;;;6239860;28;20033;-74
2023/09/25 01:11:24;;;;;;;2.03;1.08;;;17.20;60.10;;;;;;6221549;28;20064;-76
2023/09/25 01:14:27;;;;;;;3.67;1.52;;;17.20;60.20;;;;;;6239777;28;20053;-75
2023/09/25 01:17:28;;;;;;;3.08;1.55;;;17.20;60.30;;;;;;6237556;28;20034;-74
2023/09/25 01:20:29;;;;;;;1.80;1.10;;;17.20;60.40;;;;;;6239000;28;20453;-75
2023/09/25 01:23:30;;;;;;;3.60;1.15;;;17.20;60.30;;;;;;6239475;28;20039;-73
2023/09/25 01:26:31;;;;;;;9.40;1.70;;;17.20;60.10;;;;;;6204384;28;20060;-76
2023/09/25 01:29:32;;;;;;;4.03;1.30;;;17.30;60.30;;;;;;6212761;28;20045;-74
2023/09/25 01:32:32;;;;;;;2.60;0.85;;;17.20;60.10;;;;;;6236896;28;20131;-75
2023/09/25 01:35:33;;;;;;;2.92;1.35;;;17.30;60.10;;;;;;6221005;28;20107;-75
2023/09/25 01:38:34;;;;;;;2.22;1.25;;;17.30;60.00;;;;;;6221092;28;20540;-74
2023/09/25 01:41:35;;;;;;;3.20;1.40;;;17.20;60.00;;;;;;6238847;28;20026;-75
2023/09/25 01:44:36;;;;;;;3.17;1.63;;;17.20;60.10;;;;;;6217448;28;20207;-75
2023/09/25 01:47:37;;;;;;;2.40;1.02;;;17.20;60.50;;;;;;6234070;28;20068;-74
2023/09/25 01:50:38;;;;;;;3.38;1.40;;;17.10;60.50;;;;;;6238547;28;20025;-75
2023/09/25 01:53:39;;;;;;;1.98;1.23;;;17.10;60.80;;;;;;6220676;28;20030;-75
2023/09/25 01:56:40;;;;;;;1.70;1.02;;;17.20;61.00;;;;;;6238990;28;20422;-75
2023/09/25 01:59:41;;;;;;;2.10;1.20;;;17.00;61.10;;;;;;6237051;28;20033;-74
2023/09/25 02:02:42;;;;;;;9.95;1.45;;;17.00;61.20;;;;;;6237136;28;20427;-75
2023/09/25 02:05:44;;;;;;;6.13;1.15;;;17.00;61.20;;;;;;6238626;28;20191;-75
2023/09/25 02:08:45;;;;;;;2.22;0.90;;;16.90;61.10;;;;;;6237223;28;20037;-74
2023/09/25 02:11:46;;;;;;;1.92;1.45;;;16.90;61.20;;;;;;6225012;28;20033;-74
2023/09/25 02:14:48;;;;;;;1.90;1.15;;;16.80;61.30;;;;;;6213878;28;20125;-74
2023/09/25 02:17:49;;;;;;;2.28;1.17;;;16.80;61.40;;;;;;6211858;28;20038;-76
2023/09/25 02:20:50;;;;;;;0.90;0.70;;;16.80;61.50;;;;;;6211336;28;20179;-75
2023/09/25 02:23:51;;;;;;;4.45;1.27;;;16.70;61.60;;;;;;6225622;28;20040;-75
2023/09/25 02:26:52;;;;;;;3.20;1.25;;;16.70;61.60;;;;;;6219408;28;20493;-75
2023/09/25 02:29:52;;;;;;;1.45;1.00;;;16.70;61.60;;;;;;6237503;28;20037;-74
2023/09/25 02:32:53;;;;;;;1.58;1.05;;;16.60;61.70;;;;;;6219944;28;20228;-74
2023/09/25 02:36:05;;;;;;;2.30;1.20;;;17.20;62.30;;;;;;6237635;28;20041;-74
2023/09/25 02:39:05;;;;;;;1.98;0.90;;;16.50;61.90;;;;;;6219857;28;20045;-75
2023/09/25 02:42:07;;;;;;;6.43;1.17;;;16.60;61.90;;;;;;6237679;28;20107;-75
2023/09/25 02:45:09;;;;;;;2.63;1.30;;;16.50;61.80;;;;;;6217208;28;20029;-75
2023/09/25 02:48:09;;;;;;;1.33;0.82;;;16.60;61.80;;;;;;6227882;28;20034;-73
2023/09/25 02:51:10;;;;;;;4.72;1.15;;;16.60;61.70;;;;;;6227611;28;20722;-74
2023/09/25 02:54:11;;;;;;;1.88;1.05;;;16.60;61.70;;;;;;6235250;28;20033;-74
2023/09/25 02:57:12;;;;;;;2.00;1.08;;;16.60;61.90;;;;;;6235592;28;20381;-76
2023/09/25 03:00:13;;;;;;;5.18;1.33;;;16.60;61.90;;;;;;6235479;28;20049;-75
2023/09/25 03:03:14;;;;;;;1.50;1.00;;;16.50;61.90;;;;;;6219174;28;20041;-75
2023/09/25 03:06:15;;;;;;;2.72;1.15;;;16.50;62.10;;;;;;6218780;28;20440;-74
2023/09/25 03:09:16;;;;;;;1.95;1.10;;;16.20;62.10;;;;;;6235659;28;20638;-75
2023/09/25 03:12:16;;;;;;;2.60;1.00;;;16.40;62.40;;;;;;6227476;28;20616;-74
2023/09/25 03:15:17;;;;;;;2.20;1.00;;;16.40;62.60;;;;;;6213019;28;20089;-75
2023/09/25 03:18:18;;;;;;;1.15;0.90;;;16.30;62.80;;;;;;6210819;28;20049;-74
2023/09/25 03:21:21;;;;;;;3.55;1.00;;;16.30;63.00;;;;;;6214078;28;20113;-75
2023/09/25 03:24:22;;;;;;;3.90;1.30;;;16.20;63.20;;;;;;6212757;28;20065;-74
2023/09/25 03:27:22;;;;;;;3.53;1.60;;;16.20;63.30;;;;;;6212185;28;20123;-74
2023/09/25 03:30:23;;;;;;;2.22;1.27;;;16.20;63.30;;;;;;6194614;28;20057;-74
2023/09/25 03:33:27;;;;;;;3.53;1.38;;;16.20;63.30;;;;;;6211077;28;20108;-75
2023/09/25 03:36:29;;;;;;;3.33;1.40;;;16.20;63.30;;;;;;6193843;28;20034;-74
2023/09/25 03:39:30;;;;;;;4.35;1.17;;;16.20;63.30;;;;;;6212438;28;20072;-74
2023/09/25 03:42:30;;;;;;;2.20;1.30;;;16.10;63.20;;;;;;6212682;28;20465;-74
2023/09/25 03:45:31;;;;;;;1.42;0.98;;;16.20;63.40;;;;;;6194253;28;20041;-74
2023/09/25 03:48:32;;;;;;;2.65;1.27;;;16.10;63.40;;;;;;6194485;28;20790;-74
2023/09/25 03:51:33;;;;;;;4.38;1.30;;;16.10;63.40;;;;;;6215458;28;20041;-76
2023/09/25 03:54:34;;;;;;;1.48;1.13;;;16.10;63.40;;;;;;6237552;28;20179;-75
2023/09/25 03:57:35;;;;;;;5.10;1.55;;;16.10;64.10;;;;;;6239649;28;20041;-75
2023/09/25 04:00:37;;;;;;;2.50;1.00;;;16.10;63.20;;;;;;6241225;28;20068;-75
2023/09/25 04:03:38;;;;;;;3.72;1.40;;;16.20;63.30;;;;;;6241749;28;20438;-74
2023/09/25 04:06:39;;;;;;;1.42;1.23;;;16.10;63.40;;;;;;6241363;28;20091;-76
2023/09/25 04:09:39;;;;;;;2.45;1.13;;;16.20;63.60;;;;;;6241759;28;20029;-75
2023/09/25 04:12:40;;;;;;;1.63;1.25;;;16.20;63.60;;;;;;6241342;28;20461;-75
2023/09/25 04:15:41;;;;;;;1.63;1.08;;;16.10;63.50;;;;;;6234110;28;20161;-74
2023/09/25 04:18:42;;;;;;;6.97;1.20;;;16.10;63.60;;;;;;6214958;28;20575;-75
2023/09/25 04:21:43;;;;;;;6.07;1.25;;;16.00;63.70;;;;;;6216301;28;20458;-75
2023/09/25 04:24:44;;;;;;;3.03;1.30;;;16.00;63.90;;;;;;6216889;28;20462;-75
2023/09/25 04:27:46;;;;;;;7.35;1.48;;;15.90;64.00;;;;;;6214585;28;20041;-76
2023/09/25 04:30:51;;;;;;;2.50;1.33;;;15.90;64.00;;;;;;6216225;28;20026;-74
2023/09/25 04:33:52;;;;;;;1.35;1.20;;;15.90;64.00;;;;;;6216417;28;20129;-76
2023/09/25 04:36:52;;;;;;;6.30;1.17;;;15.90;64.00;;;;;;6216055;28;20526;-74
2023/09/25 04:39:53;;;;;;;2.47;1.10;;;15.90;64.10;;;;;;6214394;28;20121;-74
2023/09/25 04:42:54;;;;;;;2.20;1.38;;;15.90;64.10;;;;;;6216216;28;20509;-73
2023/09/25 04:45:55;;;;;;;2.70;1.50;;;15.90;64.10;;;;;;6230049;28;20435;-75
2023/09/25 04:48:56;;;;;;;3.38;1.27;;;15.90;64.20;;;;;;6240578;28;20025;-75
2023/09/25 04:51:57;;;;;;;8.63;1.30;;;15.80;64.20;;;;;;6240128;28;20025;-75
2023/09/25 04:54:58;;;;;;;4.20;1.98;;;16.00;64.40;;;;;;6222362;28;20030;-75
2023/09/25 04:57:59;;;;;;;3.03;1.25;;;15.80;64.20;;;;;;6238139;28;20044;-75
2023/09/25 05:00:59;;;;;;;3.35;1.42;;;15.80;64.20;;;;;;6221600;28;20442;-74
2023/09/25 05:04:00;;;;;;;2.60;1.67;;;15.70;64.20;;;;;;6222042;28;20498;-75
2023/09/25 05:07:01;;;;;;;7.57;0.98;;;15.70;64.20;;;;;;6239034;28;20637;-75
2023/09/25 05:10:04;;;;;;;3.58;1.20;;;15.70;64.30;;;;;;6238274;28;20030;-75
2023/09/25 05:13:04;;;;;;;1.52;1.13;;;16.00;64.70;;;;;;6236705;28;20564;-77
2023/09/25 05:16:06;;;;;;;2.22;1.10;;;15.60;64.10;;;;;;6233233;28;20037;-73
2023/09/25 05:19:07;;;;;;;5.15;1.45;;;15.60;64.70;;;;;;6239512;28;20049;-75
2023/09/25 05:22:09;;;;;;;5.22;1.48;;;15.60;64.90;;;;;;6239331;28;20458;-75
2023/09/25 05:25:11;;;;;;;3.58;1.60;;;15.60;65.00;;;;;;6221423;28;20033;-73
2023/09/25 05:28:12;;;;;;;3.22;1.77;;;15.60;65.00;;;;;;6221087;28;20076;-75
2023/09/25 05:31:13;;;;;;;2.90;1.45;;;15.60;65.00;;;;;;6238988;28;20048;-75
2023/09/25 05:34:14;;;;;;;2.63;1.55;;;15.50;65.00;;;;;;6239222;28;20560;-75
2023/09/25 05:37:15;;;;;;;2.40;1.48;;;15.50;65.10;;;;;;6239422;28;20390;-74
2023/09/25 05:40:16;;;;;;;6.07;2.40;;;15.50;65.20;;;;;;6237478;28;20040;-76
2023/09/25 05:43:17;;;;;;;11.43;2.85;;;15.70;65.40;;;;;;6223578;28;20022;-75
2023/09/25 05:46:18;;;;;;;2.28;1.13;;;15.50;65.40;;;;;;6214155;28;20613;-74
2023/09/25 05:49:19;;;;;;;5.13;1.73;;;15.50;65.40;;;;;;6221039;28;20091;-74
2023/09/25 05:52:20;;;;;;;2.35;1.38;;;15.50;65.60;;;;;;6238672;28;20029;-75
2023/09/25 05:55:21;;;;;;;8.52;1.75;;;15.40;65.60;;;;;;6238737;28;20142;-75
2023/09/25 05:58:22;;;;;;;2.13;1.13;;;15.40;65.50;;;;;;6236620;28;20480;-75
2023/09/25 06:01:23;;;;;;;4.70;1.50;;;15.40;65.40;;;;;;6237963;28;20029;-74
2023/09/25 06:04:24;;;;;;;3.20;1.55;;;15.40;65.30;;;;;;6239296;28;20022;-74
2023/09/25 06:07:24;;;;;;;2.58;1.35;;;15.40;65.30;;;;;;6238499;28;20029;-74
2023/09/25 06:10:25;;;;;;;7.03;2.10;;;15.40;65.30;;;;;;6220105;28;20197;-75
2023/09/25 06:13:26;;;;;;;5.75;2.28;;;15.40;65.30;;;;;;6238513;28;20037;-73
2023/09/25 06:16:27;;;;;;;4.78;1.88;;;15.30;65.30;;;;;;6237910;28;20032;-73
2023/09/25 06:19:28;;;;;;;9.90;1.98;;;15.30;65.50;;;;;;6237285;28;20415;-73
2023/09/25 06:22:28;;;;;;;15.25;1.80;;;15.30;65.60;;;;;;6237894;28;20108;-72
2023/09/25 06:25:30;;;;;;;2.55;1.13;;;15.60;65.70;;;;;;6236418;28;20038;-74
2023/09/25 06:28:30;;;;;;;3.08;1.48;;;15.30;65.60;;;;;;6237523;28;20045;-74
2023/09/25 06:31:31;;;;;;;5.32;1.92;;;15.30;65.70;;;;;;6237238;28;20236;-74
2023/09/25 06:34:32;;;;;;;15.80;2.00;;;15.30;65.80;;;;;;6235669;28;20158;-73
2023/09/25 06:37:34;;;;;;;4.38;1.83;;;15.30;65.90;;;;;;6237058;28;20120;-74
2023/09/25 06:40:35;;;;;;;6.43;1.70;;;15.40;65.90;;;;;;6237380;28;20064;-75
2023/09/25 06:43:36;;;;;;;7.90;1.60;;;15.40;65.80;;;;;;6237423;28;20041;-73
2023/09/25 06:46:37;;;;;;;5.03;1.20;;;15.60;65.80;;;;;;6226941;28;20084;-75
2023/09/25 06:49:38;;;;;;;4.60;1.67;;;15.50;65.60;;;;;;6212813;28;20038;-74
2023/09/25 06:52:40;;;;;;;2.30;1.30;;;15.60;65.40;;;;;;6227584;28;20438;-74
2023/09/25 06:55:43;;;;;;;3.78;1.52;;;15.70;65.20;;;;;;6213412;28;20144;-74
2023/09/25 06:58:44;;;;;;;2.45;1.65;;;15.70;65.00;;;;;;6227734;28;20038;-73
2023/09/25 07:01:45;;;;;;;2.55;1.45;;;15.80;64.80;;;;;;6212453;28;20474;-75
2023/09/25 07:04:47;;;;;;;2.83;1.70;;;15.90;64.60;;;;;;6221960;28;20026;-73
2023/09/25 07:07:48;;;;;;;4.28;1.52;;;15.90;64.40;;;;;;6218307;28;20123;-73
2023/09/25 07:10:49;;;;;;;3.88;1.77;;;15.90;64.30;;;;;;6201866;28;20470;-74
2023/09/25 07:13:49;;;;;;;6.60;2.25;;;16.00;64.10;;;;;;6236592;28;20025;-75
2023/09/25 07:16:51;;;;;;;5.25;2.03;;;16.00;64.00;;;;;;6237089;28;20041;-73
2023/09/25 07:19:53;;;;;;;6.75;2.30;;;16.10;63.90;;;;;;6236774;28;20257;-74
2023/09/25 07:22:53;;;;;;;5.55;2.45;;;16.20;63.70;;;;;;6236902;28;20081;-72
2023/09/25 07:26:07;;;;;;;13.05;1.33;;;16.40;63.40;;;;;;6233643;28;20358;-75
2023/09/25 07:29:08;;;;;;;3.13;1.67;;;16.40;63.00;;;;;;6226359;28;20041;-75
2023/09/25 07:32:09;;;;;;;4.80;1.88;;;16.50;62.80;;;;;;6225719;28;20466;-74
2023/09/25 07:35:15;;;;;;;6.80;2.78;;;16.70;62.60;;;;;;6228896;28;20444;-74
2023/09/25 07:38:15;;;;;;;15.23;2.08;;;16.80;62.20;;;;;;6233540;28;20855;-75
2023/09/25 07:41:18;;;;;;;4.40;1.98;;;17.00;62.00;;;;;;6230936;28;20030;-74
2023/09/25 07:44:19;;;;;;;4.50;2.13;;;17.10;61.70;;;;;;6230018;28;20109;-74
2023/09/25 07:47:20;;;;;;;3.33;1.63;;;17.20;62.10;;;;;;6228268;28;20483;-76
2023/09/25 07:50:24;;;;;;;6.47;2.08;;;17.40;61.00;;;;;;6233379;28;20044;-74
2023/09/25 07:53:28;;;;;;;5.82;2.28;;;17.50;60.50;;;;;;6227870;28;20048;-73
2023/09/25 07:56:30;;;;;;;3.10;1.85;;;17.60;60.10;;;;;;6230357;28;20034;-74
2023/09/25 07:59:30;;;;;;;6.97;2.42;;;17.70;59.80;;;;;;6232248;28;20033;-74
2023/09/25 08:02:38;;;;;;;4.35;1.92;;;17.90;59.20;;;;;;6224732;28;20037;-72
2023/09/25 08:05:40;;;;;;;6.10;2.60;;;18.00;59.00;;;;;;6229872;28;20045;-74
2023/09/25 08:08:41;;;;;;;6.28;2.00;;;18.10;58.40;;;;;;6231214;28;20681;-74
2023/09/25 08:11:43;;;;;;;5.93;2.35;;;18.20;58.20;;;;;;6235464;28;20025;-76
2023/09/25 08:14:45;;;;;;;6.55;2.08;;;18.30;57.80;;;;;;6211941;28;20040;-75
2023/09/25 08:17:47;;;;;;;3.78;2.22;;;18.40;57.50;;;;;;6226941;28;20104;-75
2023/09/25 08:20:47;;;;;;;5.35;2.30;;;18.40;57.30;;;;;;6223458;28;20663;-73
2023/09/25 08:23:48;;;;;;;3.70;1.88;;;18.60;57.20;;;;;;6220294;28;20120;-75
2023/09/25 08:26:49;;;;;;;4.60;2.00;;;18.80;57.70;;;;;;6229622;28;20026;-74
2023/09/25 08:29:50;;;;;;;2.78;1.50;;;18.90;56.70;;;;;;6228843;28;20026;-75
2023/09/25 08:32:52;;;;;;;7.03;1.90;;;19.10;56.30;;;;;;6229970;28;20082;-73
2023/09/25 08:35:53;;;;;;;4.38;1.98;;;19.30;55.80;;;;;;6226095;28;20132;-77
2023/09/25 08:38:54;;;;;;;4.68;2.22;;;19.30;55.20;;;;;;6229402;28;20034;-76
2023/09/25 08:41:56;;;;;;;2.70;1.40;;;19.40;54.90;;;;;;6234530;28;20108;-76
2023/09/25 08:45:02;;;;;;;4.95;2.30;;;19.40;54.50;;;;;;6225350;28;20021;-74
2023/09/25 08:48:04;;;;;;;6.97;2.92;;;19.50;54.50;;;;;;6224560;28;20671;-74
2023/09/25 08:51:05;;;;;;;5.60;2.47;;;19.60;53.90;;;;;;6230244;28;20571;-74
2023/09/25 08:54:07;;;;;;;5.63;1.95;;;19.70;53.80;;;;;;6224751;28;20379;-75
2023/09/25 08:57:09;;;;;;;3.53;1.63;;;19.90;53.80;;;;;;6227708;28;20099;-75
2023/09/25 09:00:15;;;;;;;8.30;2.60;;;20.00;53.40;;;;;;6229187;28;20112;-75
2023/09/25 09:03:16;;;;;;;3.47;1.25;;;20.10;53.00;;;;;;6221546;28;20130;-74
2023/09/25 09:06:17;;;;;;;12.50;1.65;;;20.20;52.30;;;;;;6224928;28;20025;-76
2023/09/25 09:09:18;;;;;;;9.93;2.08;;;20.20;51.50;;;;;;6224757;28;20066;-75
2023/09/25 09:12:19;;;;;;;5.30;2.15;;;20.20;51.40;;;;;;6225847;28;20343;-75
2023/09/25 09:15:28;;;;;;;7.97;1.85;;;20.30;51.70;;;;;;6226872;28;20471;-74
2023/09/25 09:18:29;;;;;;;4.05;1.80;;;20.40;51.50;;;;;;6229264;28;20037;-76
2023/09/25 09:21:30;;;;;;;6.35;2.28;;;20.50;51.50;;;;;;6223947;28;20045;-74
2023/09/25 09:24:32;;;;;;;12.18;2.55;;;20.50;51.30;;;;;;6207898;28;20068;-74
2023/09/25 09:27:36;;;;;;;13.55;5.00;;;20.70;50.80;;;;;;6220390;28;20738;-75
2023/09/25 09:30:37;;;;;;;9.32;3.50;;;20.80;50.60;;;;;;6226069;28;20500;-75
2023/09/25 09:33:42;;;;;;;8.40;3.10;;;20.80;49.60;;;;;;6225025;28;20155;-76
2023/09/25 09:36:52;;;;;;;5.03;2.20;;;20.90;49.50;;;;;;6226835;28;20124;-75
2023/09/25 09:39:55;;;;;;;12.20;4.35;;;20.90;49.30;;;;;;6221514;28;20101;-75
2023/09/25 09:42:57;;;;;;;9.48;2.10;;;20.90;49.40;;;;;;6228208;28;20130;-74
2023/09/25 09:45:59;;;;;;;3.38;1.60;;;21.00;49.10;;;;;;6211337;28;20047;-74
2023/09/25 09:49:02;;;;;;;7.38;1.90;;;21.00;49.10;;;;;;6223543;28;20558;-74
2023/09/25 09:52:03;;;;;;;4.97;1.75;;;21.00;49.30;;;;;;6220528;28;20026;-77
2023/09/25 09:55:07;;;;;;;3.00;1.27;;;21.10;49.20;;;;;;6227735;28;20089;-74
2023/09/25 09:58:09;;;;;;;12.18;3.22;;;21.30;48.90;;;;;;6219651;28;20121;-74
2023/09/25 10:01:10;;;;;;;4.63;2.22;;;21.40;48.60;;;;;;6228045;28;20041;-73
2023/09/25 10:04:11;;;;;;;4.50;1.92;;;21.50;48.60;;;;;;6228343;28;20025;-76
2023/09/25 10:07:12;;;;;;;3.13;1.40;;;21.60;48.00;;;;;;6228951;28;20124;-75
2023/09/25 10:10:13;;;;;;;5.22;2.35;;;21.70;47.90;;;;;;6233840;28;20034;-76
2023/09/25 10:13:24;;;;;;;15.00;2.20;;;21.80;47.60;;;;;;6223184;28;20025;-75
2023/09/25 10:16:29;;;;;;;3.80;1.83;;;21.80;47.00;;;;;;6231587;28;20113;-75
2023/09/25 10:19:52;;;;;;;6.05;2.50;;;21.90;46.50;;;;;;6221809;28;20129;-74
2023/09/25 10:22:53;;;;;;;3.10;1.63;;;21.90;46.30;;;;;;6227717;28;20038;-76
2023/09/25 10:26:02;;;;;;;7.03;1.58;;;22.00;46.20;;;;;;6229497;28;20032;-73
2023/09/25 10:29:14;;;;;;;2.90;1.67;;;22.20;46.10;;;;;;6223694;28;20060;-75
2023/09/25 10:32:30;;;;;;;10.13;2.40;;;22.60;45.50;;;;;;6222030;28;20041;-76
2023/09/25 10:35:37;;;;;;;5.85;1.70;;;22.90;45.10;;;;;;6209961;28;20033;-76
2023/09/25 10:38:41;;;;;;;3.40;1.73;;;23.20;44.50;;;;;;6234059;28;20033;-76
2023/09/25 10:41:42;;;;;;;5.82;2.20;;;23.60;44.00;;;;;;6212777;28;20109;-74
2023/09/25 10:44:47;;;;;;;7.35;2.45;;;23.90;43.10;;;;;;6232304;28;20029;-74
2023/09/25 10:47:48;;;;;;;6.38;2.35;;;24.10;42.80;;;;;;6223350;28;20030;-75
2023/09/25 10:50:49;;;;;;;12.25;2.80;;;24.40;42.40;;;;;;6218273;28;20034;-76
2023/09/25 10:53:54;;;;;;;2.92;1.33;;;24.60;41.90;;;;;;6233059;28;20548;-75
2023/09/25 10:56:55;;;;;;;7.10;3.03;;;24.90;41.60;;;;;;6229492;28;20091;-76
2023/09/25 10:59:55;;;;;;;5.28;2.78;;;25.20;40.70;;;;;;6217404;28;20135;-75
2023/09/25 11:02:56;;;;;;;2.80;1.70;;;25.50;40.00;;;;;;6179641;28;20018;-75
2023/09/25 11:05:58;;;;;;;3.85;1.52;;;25.70;39.70;;;;;;6212777;28;20102;-77
2023/09/25 11:09:07;;;;;;;4.38;1.52;;;26.10;39.50;;;;;;6213173;28;20082;-74
2023/09/25 11:12:08;;;;;;;3.80;1.73;;;26.40;38.40;;;;;;6229513;28;20073;-77
2023/09/25 11:15:11;;;;;;;3.42;1.60;;;26.70;37.60;;;;;;6237805;28;20117;-74
2023/09/25 11:18:12;;;;;;;4.90;1.75;;;27.00;37.00;;;;;;6237681;28;20034;-77
2023/09/25 11:21:13;;;;;;;4.13;1.55;;;27.20;37.10;;;;;;6237042;28;20113;-75
2023/09/25 11:24:13;;;;;;;6.88;1.77;;;27.50;36.50;;;;;;6236651;28;20033;-77
2023/09/25 11:27:16;;;;;;;5.20;2.17;;;27.80;35.80;;;;;;6237336;28;20048;-76
2023/09/25 11:30:17;;;;;;;5.38;1.58;;;28.10;35.10;;;;;;6236076;28;20048;-74
2023/09/25 11:33:20;;;;;;;13.10;2.83;;;28.50;35.00;;;;;;6237966;28;20029;-74
2023/09/25 11:36:21;;;;;;;3.17;1.80;;;28.80;34.00;;;;;;6237616;28;20077;-75
2023/09/25 11:39:22;;;;;;;7.80;1.80;;;29.10;33.30;;;;;;6237265;28;20091;-75
2023/09/25 11:42:24;;;;;;;9.50;1.95;;;29.40;32.80;;;;;;6237379;28;20028;-76
2023/09/25 11:45:25;;;;;;;5.18;1.60;;;29.70;32.40;;;;;;6227844;28;20140;-75
2023/09/25 11:48:26;;;;;;;3.85;1.77;;;30.10;31.90;;;;;;6220836;28;20042;-75
2023/09/25 11:51:27;;;;;;;33.85;2.80;;;30.60;31.50;;;;;;6212397;28;20034;-73
2023/09/25 11:54:28;;;;;;;3.22;1.92;;;31.00;30.70;;;;;;6212337;28;20113;-76
2023/09/25 11:57:30;;;;;;;3.47;1.60;;;31.50;30.00;;;;;;6211206;28;20078;-75
2023/09/25 12:00:31;;;;;;;5.03;1.67;;;31.90;29.70;;;;;;6211873;28;20132;-75
2023/09/25 12:03:38;;;;;;;3.90;1.77;;;32.30;29.50;;;;;;6212110;28;20112;-75
2023/09/25 12:06:39;;;;;;;3.20;1.70;;;32.80;29.10;;;;;;6210736;28;20108;-76
2023/09/25 12:09:40;;;;;;;5.22;2.40;;;33.40;28.50;;;;;;6210445;28;20068;-75
2023/09/25 12:12:41;;;;;;;4.03;1.38;;;33.90;28.20;;;;;;6232388;28;20421;-76
2023/09/25 12:15:42;;;;;;;5.80;1.55;;;34.40;27.50;;;;;;6238405;28;20113;-75
2023/09/25 12:18:43;;;;;;;2.88;1.40;;;35.00;26.90;;;;;;6241366;28;20492;-74
2023/09/25 12:21:44;;;;;;;12.05;1.52;;;35.60;26.30;;;;;;6239364;28;20466;-75
2023/09/25 12:24:45;;;;;;;2.65;1.70;;;36.10;25.40;;;;;;6240886;28;20026;-76
2023/09/25 12:27:46;;;;;;;2.35;1.50;;;36.50;24.90;;;;;;6222862;28;20093;-76
2023/09/25 12:30:47;;;;;;;5.32;2.05;;;36.80;24.50;;;;;;6239082;28;20037;-77
2023/09/25 12:33:49;;;;;;;4.82;1.55;;;37.10;23.80;;;;;;6239630;28;20037;-74
2023/09/25 12:36:50;;;;;;;4.60;1.77;;;37.50;23.40;;;;;;6239416;28;20048;-77
2023/09/25 12:39:51;;;;;;;2.08;1.35;;;37.60;22.90;;;;;;6240454;28;20037;-76
2023/09/25 12:42:52;;;;;;;3.47;1.50;;;37.80;22.70;;;;;;6240456;28;20030;-74
2023/09/25 12:45:53;;;;;;;3.28;1.58;;;38.00;22.60;;;;;;6241029;28;20739;-74
2023/09/25 12:48:54;;;;;;;3.85;1.63;;;38.00;22.10;;;;;;6240671;28;20446;-76
2023/09/25 12:51:55;;;;;;;3.80;1.60;;;37.50;22.30;;;;;;6240314;28;20074;-75
2023/09/25 12:54:57;;;;;;;2.83;1.27;;;36.40;22.80;;;;;;6222076;28;20151;-76
2023/09/25 12:57:58;;;;;;;3.38;1.65;;;35.10;23.70;;;;;;6239912;28;20115;-75
2023/09/25 13:00:59;;;;;;;4.15;1.70;;;33.90;24.60;;;;;;6240415;28;20040;-76
2023/09/25 13:04:05;;;;;;;3.88;1.52;;;33.20;25.30;;;;;;6240145;28;20111;-74
2023/09/25 13:07:06;;;;;;;5.93;2.50;;;32.60;25.70;;;;;;6240048;28;20453;-74
2023/09/25 13:10:08;;;;;;;4.03;1.60;;;32.30;25.90;;;;;;6240098;28;20040;-79
2023/09/25 13:13:09;;;;;;;5.75;1.50;;;32.70;25.70;;;;;;6214361;28;20029;-75
2023/09/25 13:16:10;;;;;;;3.47;1.92;;;32.60;25.70;;;;;;6215983;28;20037;-75
2023/09/25 13:19:11;;;;;;;5.47;1.90;;;32.20;25.80;;;;;;6215478;28;20037;-78
2023/09/25 13:22:15;;;;;;;2.90;1.55;;;31.80;25.90;;;;;;6197227;28;20180;-76
2023/09/25 13:25:16;;;;;;;2.78;1.50;;;31.40;26.00;;;;;;6196776;28;20455;-73
2023/09/25 13:28:18;;;;;;;9.15;1.80;;;30.90;26.30;;;;;;6213904;28;20192;-74
2023/09/25 13:31:19;;;;;;;5.00;1.85;;;30.50;27.00;;;;;;6212709;28;20096;-74
2023/09/25 13:34:20;;;;;;;11.45;1.80;;;30.10;27.50;;;;;;6213135;28;20045;-75
2023/09/25 13:37:21;;;;;;;3.90;1.70;;;29.70;28.10;;;;;;6196480;28;20041;-75
2023/09/25 13:40:23;;;;;;;2.72;1.40;;;29.30;28.60;;;;;;6239133;28;20057;-74
2023/09/25 13:43:25;;;;;;;10.65;2.05;;;29.00;29.00;;;;;;6238075;28;20041;-77
2023/09/25 13:46:26;;;;;;;4.20;1.77;;;28.80;29.40;;;;;;6239092;28;20114;-77
2023/09/25 13:49:26;;;;;;;4.38;1.50;;;28.50;29.90;;;;;;6238994;28;20109;-73
2023/09/25 13:52:27;;;;;;;4.00;2.03;;;28.40;30.30;;;;;;6204637;28;20053;-74
2023/09/25 13:55:28;;;;;;;3.58;1.63;;;28.20;30.70;;;;;;6238992;28;20041;-75
2023/09/25 13:58:29;;;;;;;4.70;1.60;;;28.00;31.20;;;;;;6238403;28;20040;-75
2023/09/25 14:01:30;;;;;;;5.72;1.85;;;27.80;31.50;;;;;;6220166;28;20037;-74
2023/09/25 14:04:31;;;;;;;2.60;1.83;;;27.60;31.70;;;;;;6238577;28;20514;-75
2023/09/25 14:07:32;;;;;;;6.43;2.08;;;27.50;31.80;;;;;;6237596;28;20040;-75
2023/09/25 14:10:39;;;;;;;7.00;1.48;;;27.50;32.20;;;;;;6218307;28;20033;-76
2023/09/25 14:13:39;;;;;;;2.65;1.60;;;27.40;32.50;;;;;;6221175;28;20056;-74
2023/09/25 14:16:40;;;;;;;4.82;1.85;;;27.30;32.70;;;;;;6239261;28;20157;-74
2023/09/25 14:19:41;;;;;;;3.55;1.52;;;27.30;33.10;;;;;;6238273;28;20033;-74
2023/09/25 14:22:42;;;;;;;2.22;1.27;;;27.10;33.10;;;;;;6237119;28;20026;-75
2023/09/25 14:25:43;;;;;;;7.13;1.50;;;27.10;33.40;;;;;;6238544;28;20025;-76
2023/09/25 14:28:44;;;;;;;3.65;1.27;;;27.10;33.60;;;;;;6238089;28;20053;-75
2023/09/25 14:31:45;;;;;;;6.15;1.70;;;26.90;33.70;;;;;;6238072;28;20045;-76
2023/09/25 14:34:46;;;;;;;5.60;1.30;;;27.00;34.00;;;;;;6230830;28;20033;-75
2023/09/25 14:37:47;;;;;;;4.55;1.70;;;27.00;34.20;;;;;;6220973;28;20034;-79
2023/09/25 14:40:48;;;;;;;4.32;1.67;;;27.00;34.50;;;;;;6214090;28;20068;-76
2023/09/25 14:43:49;;;;;;;3.35;1.67;;;26.90;34.60;;;;;;6213629;28;20026;-75
2023/09/25 14:46:51;;;;;;;3.95;1.80;;;26.90;34.90;;;;;;6235498;28;20108;-73
2023/09/25 14:49:52;;;;;;;6.85;1.90;;;26.90;35.10;;;;;;6238284;28;20033;-76
2023/09/25 14:52:53;;;;;;;5.82;1.80;;;26.90;35.30;;;;;;6238535;28;20134;-75
2023/09/25 14:55:54;;;;;;;2.15;1.15;;;26.90;35.40;;;;;;6237986;28;20108;-74
2023/09/25 14:58:55;;;;;;;2.42;1.40;;;26.80;35.50;;;;;;6238130;28;20040;-76
2023/09/25 15:01:56;;;;;;;3.78;1.80;;;26.80;35.70;;;;;;6220180;28;20667;-78
2023/09/25 15:04:57;;;;;;;4.97;1.67;;;26.80;35.80;;;;;;6227925;28;20053;-74
2023/09/25 15:07:58;;;;;;;3.10;1.20;;;26.80;35.80;;;;;;6213598;28;20104;-76
2023/09/25 15:10:58;;;;;;;5.05;1.65;;;26.80;35.70;;;;;;6219999;28;20024;-75
2023/09/25 15:13:59;;;;;;;4.82;1.60;;;26.70;35.50;;;;;;6202941;28;20041;-76
2023/09/25 15:17:00;;;;;;;3.38;1.52;;;26.70;35.50;;;;;;6235829;28;20033;-74
2023/09/25 15:20:05;;;;;;;3.88;1.20;;;26.70;35.60;;;;;;6237234;28;20053;-75
2023/09/25 15:23:06;;;;;;;4.97;1.55;;;26.70;35.70;;;;;;6235586;28;20123;-75
2023/09/25 15:26:07;;;;;;;5.45;1.80;;;26.70;35.80;;;;;;6237123;28;20029;-76
2023/09/25 15:29:07;;;;;;;3.15;1.73;;;26.70;35.80;;;;;;6235534;28;20166;-75
2023/09/25 15:32:11;;;;;;;3.08;1.60;;;26.70;35.80;;;;;;6235703;28;20216;-76
2023/09/25 15:35:12;;;;;;;3.90;1.40;;;26.60;35.80;;;;;;6235701;28;20458;-74
2023/09/25 15:38:13;;;;;;;4.15;2.13;;;26.60;35.90;;;;;;6237161;28;20048;-75
2023/09/25 15:41:14;;;;;;;4.07;1.50;;;26.60;36.70;;;;;;6237607;28;20109;-76
2023/09/25 15:44:15;;;;;;;3.80;1.58;;;26.60;36.20;;;;;;6237040;28;20029;-76